createdAt,value
2023-04-15T00:02:00.703Z,61.07
2023-04-15T00:04:29.336Z,61.05
2023-04-15T00:06:57.468Z,61.27
2023-04-15T00:09:25.356Z,61.60
2023-04-15T00:11:52.984Z,61.52
2023-04-15T00:14:20.728Z,62.01
2023-04-15T00:16:48.179Z,62.40
2023-04-15T00:19:15.504Z,61.81
2023-04-15T00:21:43.750Z,61.78
2023-04-15T00:24:11.042Z,62.04
2023-04-15T00:26:38.425Z,61.80
2023-04-15T00:29:06.935Z,61.60
2023-04-15T00:31:34.180Z,61.92
2023-04-15T00:34:01.437Z,62.43
2023-04-15T00:36:29.309Z,61.37
2023-04-15T00:38:56.562Z,61.28
2023-04-15T00:41:24.471Z,61.10
2023-04-15T00:43:52.870Z,61.54
2023-04-15T00:46:21.882Z,61.07
2023-04-15T00:48:49.663Z,60.62
2023-04-15T00:51:17.317Z,60.40
2023-04-15T00:53:44.624Z,60.77
2023-04-15T00:56:11.935Z,60.59
2023-04-15T00:58:39.717Z,59.35
2023-04-15T01:04:07.101Z,63.57
2023-04-15T01:06:34.502Z,64.39
2023-04-15T01:09:02.213Z,63.19
2023-04-15T01:11:30.755Z,62.17
2023-04-15T01:13:59.317Z,62.10
2023-04-15T01:16:28.205Z,61.60
2023-04-15T01:18:56.807Z,61.14
2023-04-15T01:21:24.342Z,60.47
2023-04-15T01:23:53.811Z,60.31
2023-04-15T01:26:23.084Z,60.01
2023-04-15T01:28:51.083Z,58.52
2023-04-15T01:31:18.532Z,58.40
2023-04-15T01:33:47.943Z,59.46
2023-04-15T01:36:15.411Z,60.76
2023-04-15T01:38:42.724Z,64.19
2023-04-15T01:41:11.121Z,65.45
2023-04-15T01:43:38.276Z,64.01
2023-04-15T01:46:06.552Z,62.58
2023-04-15T01:48:34.573Z,60.91
2023-04-15T01:51:01.711Z,59.71
2023-04-15T01:53:28.888Z,58.01
2023-04-15T01:55:56.796Z,58.68
2023-04-15T01:58:24.064Z,59.77
2023-04-15T02:00:51.365Z,61.44
2023-04-15T02:03:20.219Z,64.84
2023-04-15T02:05:47.699Z,65.98
2023-04-15T02:08:14.969Z,64.75
2023-04-15T02:10:42.314Z,63.56
2023-04-15T02:13:10.080Z,62.76
2023-04-15T02:15:37.679Z,61.49
2023-04-15T02:18:06.153Z,60.53
2023-04-15T02:20:33.369Z,59.87
2023-04-15T02:23:00.608Z,58.18
2023-04-15T02:25:28.812Z,58.82
2023-04-15T02:27:58.351Z,60.68
2023-04-15T02:30:26.353Z,62.88
2023-04-15T02:32:53.959Z,64.45
2023-04-15T02:35:21.341Z,64.14
2023-04-15T02:37:48.617Z,63.16
2023-04-15T02:40:16.287Z,62.16
2023-04-15T02:42:44.761Z,61.10
2023-04-15T02:45:15.357Z,61.04
2023-04-15T02:47:43.740Z,60.21
2023-04-15T02:50:13.561Z,60.59
2023-04-15T02:52:42.384Z,60.25
2023-04-15T02:55:10.253Z,58.88
2023-04-15T02:57:41.504Z,58.62
2023-04-15T03:00:10.927Z,60.12
2023-04-15T03:02:40.908Z,61.08
2023-04-15T03:05:15.828Z,64.17
2023-04-15T03:07:43.563Z,65.39
2023-04-15T03:10:11.633Z,63.87
2023-04-15T03:12:38.864Z,62.57
2023-04-15T03:15:07.296Z,62.06
2023-04-15T03:17:34.564Z,61.52
2023-04-15T03:20:06.984Z,60.77
2023-04-15T03:22:34.904Z,60.15
2023-04-15T03:25:02.278Z,58.29
2023-04-15T03:27:29.847Z,58.47
2023-04-15T03:29:57.474Z,60.30
2023-04-15T03:32:24.851Z,62.60
2023-04-15T03:34:52.405Z,64.72
2023-04-15T03:37:19.939Z,65.12
2023-04-15T03:39:47.303Z,64.11
2023-04-15T03:42:14.893Z,63.12
2023-04-15T03:44:42.698Z,62.11
2023-04-15T03:47:10.038Z,61.46
2023-04-15T03:49:38.301Z,60.83
2023-04-15T03:52:06.073Z,60.45
2023-04-15T03:54:33.466Z,60.00
2023-04-15T03:57:00.742Z,58.48
2023-04-15T03:59:28.354Z,58.22
2023-04-15T04:01:55.992Z,59.70
2023-04-15T04:04:23.783Z,61.61
2023-04-15T04:06:51.436Z,64.67
2023-04-15T04:09:18.803Z,65.77
2023-04-15T04:11:46.541Z,63.99
2023-04-15T04:14:14.129Z,62.40
2023-04-15T04:16:42.531Z,61.59
2023-04-15T04:19:09.677Z,61.13
2023-04-15T04:21:37.090Z,60.85
2023-04-15T04:24:04.385Z,60.24
2023-04-15T04:26:31.914Z,59.37
2023-04-15T04:28:59.622Z,57.35
2023-04-15T04:31:27.838Z,58.18
2023-04-15T04:33:55.480Z,59.44
2023-04-15T04:36:23.105Z,63.39
2023-04-15T04:38:50.421Z,64.43
2023-04-15T04:41:19.366Z,63.11
2023-04-15T04:43:47.141Z,63.07
2023-04-15T04:46:14.407Z,63.21
2023-04-15T04:48:41.967Z,62.93
2023-04-15T04:51:10.057Z,62.09
2023-04-15T04:53:38.076Z,61.07
2023-04-15T04:56:05.612Z,60.17
2023-04-15T04:58:32.782Z,59.65
2023-04-15T05:01:00.197Z,58.06
2023-04-15T05:03:28.462Z,58.34
2023-04-15T05:05:55.701Z,59.44
2023-04-15T05:08:22.961Z,61.13
2023-04-15T05:10:51.104Z,63.81
2023-04-15T05:13:18.393Z,65.06
2023-04-15T05:15:46.081Z,63.71
2023-04-15T05:18:13.642Z,62.40
2023-04-15T05:20:40.985Z,61.32
2023-04-15T05:23:08.487Z,61.29
2023-04-15T05:25:37.072Z,61.04
2023-04-15T05:28:04.272Z,60.65
2023-04-15T05:30:31.718Z,60.17
2023-04-15T05:32:59.661Z,59.53
2023-04-15T05:35:27.642Z,57.75
2023-04-15T05:37:54.966Z,58.36
2023-04-15T05:40:23.629Z,59.82
2023-04-15T05:42:50.990Z,60.90
2023-04-15T05:45:18.307Z,64.19
2023-04-15T05:47:45.698Z,65.57
2023-04-15T05:50:13.115Z,64.21
2023-04-15T05:52:40.533Z,63.00
2023-04-15T05:55:08.153Z,61.69
2023-04-15T05:57:35.760Z,60.77
2023-04-15T06:00:03.023Z,60.04
2023-04-15T06:02:32.552Z,58.40
2023-04-15T06:05:01.411Z,58.28
2023-04-15T06:07:28.974Z,59.47
2023-04-15T06:09:56.639Z,60.99
2023-04-15T06:12:24.492Z,63.87
2023-04-15T06:14:51.961Z,64.05
2023-04-15T06:17:19.891Z,62.25
2023-04-15T06:19:47.565Z,61.09
2023-04-15T06:22:14.855Z,59.85
2023-04-15T06:24:42.454Z,58.39
2023-04-15T06:27:10.181Z,58.13
2023-04-15T06:29:37.430Z,60.22
2023-04-15T06:32:04.781Z,59.97
2023-04-15T06:34:32.424Z,60.36
2023-04-15T06:36:59.978Z,62.86
2023-04-15T06:39:27.895Z,63.83
2023-04-15T06:41:55.411Z,61.76
2023-04-15T06:44:22.902Z,60.37
2023-04-15T06:46:50.633Z,58.21
2023-04-15T06:49:17.781Z,57.78
2023-04-15T06:51:45.932Z,58.20
2023-04-15T06:54:13.353Z,59.81
2023-04-15T06:56:41.755Z,59.47
2023-04-15T06:59:09.251Z,60.43
2023-04-15T07:01:36.743Z,62.39
2023-04-15T07:04:04.093Z,62.67
2023-04-15T07:06:33.217Z,60.51
2023-04-15T07:09:00.850Z,57.25
2023-04-15T07:11:28.532Z,56.37
2023-04-15T07:13:56.312Z,57.37
2023-04-15T07:16:23.964Z,58.77
2023-04-15T07:18:51.520Z,59.38
2023-04-15T07:21:19.088Z,60.24
2023-04-15T07:23:46.579Z,59.61
2023-04-15T07:26:14.348Z,59.72
2023-04-15T07:28:42.236Z,60.69
2023-04-15T07:31:11.659Z,62.58
2023-04-15T07:33:38.949Z,62.26
2023-04-15T07:36:06.503Z,60.61
2023-04-15T07:38:34.060Z,58.35
2023-04-15T07:41:01.364Z,56.23
2023-04-15T07:43:28.868Z,57.80
2023-04-15T07:45:56.197Z,57.75
2023-04-15T07:48:23.514Z,58.55
2023-04-15T07:50:51.307Z,59.50
2023-04-15T07:53:18.919Z,60.24
2023-04-15T07:55:46.307Z,59.77
2023-04-15T07:58:13.933Z,61.43
2023-04-15T08:00:41.672Z,60.28
2023-04-15T08:03:09.082Z,59.98
2023-04-15T08:05:37.003Z,61.51
2023-04-15T08:08:04.456Z,62.44
2023-04-15T08:10:32.092Z,62.45
2023-04-15T08:12:59.410Z,59.90
2023-04-15T08:15:27.687Z,57.46
2023-04-15T08:17:54.918Z,56.36
2023-04-15T08:20:22.356Z,56.36
2023-04-15T08:22:52.655Z,58.47
2023-04-15T08:25:23.100Z,57.55
2023-04-15T08:27:50.396Z,57.52
2023-04-15T08:30:18.262Z,58.96
2023-04-15T08:32:48.789Z,58.67
2023-04-15T08:35:16.029Z,58.71
2023-04-15T08:37:43.742Z,59.71
2023-04-15T08:40:11.990Z,59.80
2023-04-15T08:42:45.536Z,60.58
2023-04-15T08:45:12.825Z,59.50
2023-04-15T08:47:41.452Z,59.09
2023-04-15T08:50:11.688Z,59.68
2023-04-15T08:52:40.203Z,58.85
2023-04-15T08:55:10.102Z,59.17
2023-04-15T08:57:38.840Z,58.90
2023-04-15T09:00:07.180Z,59.81
2023-04-15T09:02:34.896Z,59.12
2023-04-15T09:05:03.200Z,58.83
2023-04-15T09:07:30.397Z,59.04
2023-04-15T09:09:58.011Z,59.08
2023-04-15T09:12:25.709Z,58.76
2023-04-15T09:14:53.383Z,59.06
2023-04-15T09:17:25.155Z,58.57
2023-04-15T09:20:08.989Z,59.26
2023-04-15T09:22:38.104Z,57.12
2023-04-15T09:25:26.092Z,58.04
2023-04-15T09:27:55.005Z,58.25
2023-04-15T09:30:22.471Z,58.32
2023-04-15T09:33:01.721Z,58.33
2023-04-15T09:35:29.486Z,58.35
2023-04-15T09:38:08.209Z,58.51
2023-04-15T09:40:44.405Z,58.39
2023-04-15T09:43:15.354Z,58.48
2023-04-15T09:45:49.713Z,58.82
2023-04-15T09:48:17.636Z,58.17
2023-04-15T09:50:45.470Z,58.54
2023-04-15T09:53:18.428Z,58.36
2023-04-15T09:55:55.174Z,58.80
2023-04-15T09:58:24.675Z,58.60
2023-04-15T10:00:53.899Z,58.09
2023-04-15T10:03:23.643Z,57.83
2023-04-15T10:05:53.409Z,58.11
2023-04-15T10:08:24.780Z,56.83
2023-04-15T10:10:52.983Z,56.80
2023-04-15T10:13:29.599Z,57.11
2023-04-15T10:15:59.831Z,57.23
2023-04-15T10:18:29.745Z,56.72
2023-04-15T10:20:57.288Z,56.38
2023-04-15T10:23:26.229Z,56.19
2023-04-15T10:25:55.135Z,55.78
2023-04-15T10:28:26.090Z,55.80
2023-04-15T10:30:56.118Z,55.50
2023-04-15T10:33:27.282Z,55.61
2023-04-15T10:36:00.346Z,55.50
2023-04-15T10:38:55.031Z,55.55
2023-04-15T10:41:31.263Z,55.35
2023-04-15T10:44:08.905Z,55.55
2023-04-15T10:46:42.995Z,56.00
2023-04-15T10:49:22.010Z,55.05
2023-04-15T10:51:59.989Z,53.12
2023-04-15T10:54:32.594Z,50.93
2023-04-15T10:57:10.022Z,50.55
2023-04-15T11:00:04.028Z,51.85
2023-04-15T11:02:55.367Z,52.11
2023-04-15T11:05:57.615Z,51.11
2023-04-15T11:08:59.068Z,51.94
2023-04-15T11:12:09.112Z,51.86
2023-04-15T11:14:44.923Z,51.31
2023-04-15T11:17:15.393Z,51.27
2023-04-15T11:19:48.745Z,50.21
2023-04-15T11:22:20.449Z,46.92
2023-04-15T11:24:51.076Z,48.14
2023-04-15T11:27:24.274Z,48.10
2023-04-15T11:29:52.894Z,48.52
2023-04-15T11:32:22.189Z,47.96
2023-04-15T11:34:49.394Z,46.18
2023-04-15T11:37:17.778Z,46.78
2023-04-15T11:39:45.045Z,46.41
2023-04-15T11:42:19.240Z,45.55
2023-04-15T11:44:46.495Z,45.84
2023-04-15T11:47:24.426Z,44.56
2023-04-15T11:49:51.942Z,44.67
2023-04-15T11:52:19.446Z,44.51
2023-04-15T11:54:47.232Z,44.10
2023-04-15T11:57:14.537Z,44.90
2023-04-15T11:59:46.223Z,44.08
2023-04-15T12:02:15.136Z,44.46
2023-04-15T12:04:43.112Z,44.56
2023-04-15T12:07:11.214Z,44.70
2023-04-15T12:09:40.629Z,44.66
2023-04-15T12:12:08.275Z,44.87
2023-04-15T12:14:35.580Z,43.97
2023-04-15T12:17:07.502Z,44.11
2023-04-15T12:19:40.588Z,42.13
2023-04-15T12:22:13.532Z,43.46
2023-04-15T12:24:42.879Z,44.04
2023-04-15T12:27:12.711Z,44.16
2023-04-15T12:29:42.407Z,44.52
2023-04-15T12:32:14.988Z,44.38
2023-04-15T12:34:45.617Z,44.17
2023-04-15T12:37:16.458Z,44.45
2023-04-15T12:39:45.164Z,44.18
2023-04-15T12:42:13.322Z,45.24
2023-04-15T12:44:41.096Z,45.85
2023-04-15T12:47:10.336Z,45.80
2023-04-15T12:49:38.580Z,46.14
2023-04-15T12:52:06.212Z,46.53
2023-04-15T12:54:33.484Z,46.67
2023-04-15T12:57:02.183Z,46.51
2023-04-15T12:59:30.414Z,47.18
2023-04-15T13:01:58.387Z,47.73
2023-04-15T13:04:26.331Z,47.91
2023-04-15T13:06:54.120Z,47.89
2023-04-15T13:09:21.905Z,48.69
2023-04-15T13:11:50.637Z,48.80
2023-04-15T13:14:18.192Z,48.53
2023-04-15T13:16:45.501Z,49.33
2023-04-15T13:19:13.072Z,49.77
2023-04-15T13:21:41.071Z,50.53
2023-04-15T13:24:08.891Z,51.16
2023-04-15T13:26:37.151Z,51.89
2023-04-15T13:29:04.550Z,52.92
2023-04-15T13:31:31.823Z,54.15
2023-04-15T13:33:59.151Z,55.06
2023-04-15T13:36:27.322Z,56.15
2023-04-15T13:38:55.051Z,56.48
2023-04-15T13:41:22.757Z,56.22
2023-04-15T13:43:50.011Z,55.99
2023-04-15T13:46:17.614Z,56.53
2023-04-15T13:48:45.116Z,56.74
2023-04-15T13:51:12.801Z,55.55
2023-04-15T13:53:40.061Z,59.86
2023-04-15T13:56:09.259Z,60.19
2023-04-15T13:58:38.098Z,60.77
2023-04-15T14:01:07.483Z,60.96
2023-04-15T14:03:38.798Z,61.29
2023-04-15T14:06:06.991Z,61.48
2023-04-15T14:08:34.678Z,62.62
2023-04-15T14:11:02.357Z,61.50
2023-04-15T14:13:29.693Z,59.82
2023-04-15T14:15:58.078Z,58.56
2023-04-15T14:18:25.849Z,58.48
2023-04-15T14:20:53.256Z,59.35
2023-04-15T14:23:20.715Z,58.67
2023-04-15T14:25:50.296Z,58.72
2023-04-15T14:28:17.488Z,59.18
2023-04-15T14:30:44.918Z,58.90
2023-04-15T14:33:13.021Z,59.27
2023-04-15T14:35:40.291Z,59.11
2023-04-15T14:38:11.457Z,59.03
2023-04-15T14:40:39.761Z,58.82
2023-04-15T14:43:07.083Z,58.61
2023-04-15T14:45:35.918Z,58.20
2023-04-15T14:48:04.056Z,58.24
2023-04-15T14:50:31.899Z,58.39
2023-04-15T14:52:59.780Z,58.73
2023-04-15T14:55:27.577Z,58.76
2023-04-15T14:57:54.757Z,59.05
2023-04-15T15:00:22.864Z,59.26
2023-04-15T15:02:50.653Z,58.04
2023-04-15T15:05:18.207Z,56.80
2023-04-15T15:07:46.456Z,56.02
2023-04-15T15:10:13.959Z,54.53
2023-04-15T15:12:41.291Z,54.85
2023-04-15T15:15:24.977Z,54.28
2023-04-15T15:17:56.689Z,54.08
2023-04-15T15:20:25.063Z,53.16
2023-04-15T15:22:52.747Z,52.35
2023-04-15T15:25:20.594Z,52.26
2023-04-15T15:27:49.146Z,52.34
2023-04-15T15:30:16.570Z,51.93
2023-04-15T15:32:44.832Z,52.10
2023-04-15T15:35:12.471Z,51.77
2023-04-15T15:37:40.015Z,51.75
2023-04-15T15:40:08.599Z,51.44
2023-04-15T15:42:36.661Z,51.55
2023-04-15T15:45:05.343Z,51.14
2023-04-15T15:47:33.133Z,50.92
2023-04-15T15:50:04.249Z,50.89
2023-04-15T15:52:33.173Z,50.99
2023-04-15T15:55:00.974Z,51.43
2023-04-15T15:57:28.455Z,51.46
2023-04-15T16:00:10.273Z,51.42
2023-04-15T16:03:05.266Z,51.58
2023-04-15T16:05:27.044Z,51.89
2023-04-15T16:07:54.338Z,52.15
2023-04-15T16:10:21.666Z,52.32
2023-04-15T16:12:48.881Z,52.56
2023-04-15T16:15:16.828Z,52.77
2023-04-15T16:17:44.285Z,52.75
2023-04-15T16:20:11.656Z,52.73
2023-04-15T16:22:40.078Z,52.77
2023-04-15T16:25:08.141Z,52.97
2023-04-15T16:27:54.100Z,53.16
2023-04-15T16:30:24.745Z,53.22
2023-04-15T16:32:52.373Z,53.50
2023-04-15T16:35:20.448Z,53.87
2023-04-15T16:37:48.723Z,54.08
2023-04-15T16:40:16.500Z,54.35
2023-04-15T16:42:47.164Z,54.76
2023-04-15T16:45:14.883Z,54.84
2023-04-15T16:47:42.717Z,55.03
2023-04-15T16:50:11.423Z,55.18
2023-04-15T16:52:39.053Z,55.43
2023-04-15T16:55:07.147Z,55.74
2023-04-15T16:57:48.783Z,55.86
2023-04-15T17:00:23.632Z,56.12
2023-04-15T17:02:53.082Z,56.34
2023-04-15T17:05:21.178Z,56.66
2023-04-15T17:07:49.014Z,57.04
2023-04-15T17:10:16.970Z,57.35
2023-04-15T17:12:44.257Z,57.69
2023-04-15T17:15:12.381Z,57.87
2023-04-15T17:17:39.724Z,58.15
2023-04-15T17:20:07.790Z,58.57
2023-04-15T17:22:36.007Z,58.90
2023-04-15T17:25:05.164Z,59.58
2023-04-15T17:27:33.437Z,60.13
2023-04-15T17:30:01.856Z,60.51
2023-04-15T17:32:32.444Z,60.83
2023-04-15T17:34:59.913Z,61.13
2023-04-15T17:37:27.396Z,61.10
2023-04-15T17:39:55.393Z,61.49
2023-04-15T17:42:23.435Z,61.55
2023-04-15T17:44:53.654Z,61.89
2023-04-15T17:47:22.636Z,62.55
2023-04-15T17:49:50.021Z,61.95
2023-04-15T17:52:18.618Z,64.16
2023-04-15T17:54:47.182Z,64.93
2023-04-15T17:57:15.256Z,63.09
2023-04-15T17:59:50.632Z,61.74
2023-04-15T18:02:18.523Z,58.71
2023-04-15T18:04:47.075Z,57.86
2023-04-15T18:07:15.863Z,58.63
2023-04-15T18:09:45.014Z,59.80
2023-04-15T18:12:13.236Z,60.98
2023-04-15T18:14:41.650Z,61.82
2023-04-15T18:17:10.893Z,63.47
2023-04-15T18:19:38.597Z,65.01
2023-04-15T18:22:07.103Z,64.14
2023-04-15T18:24:34.648Z,63.04
2023-04-15T18:27:03.374Z,61.65
2023-04-15T18:29:32.514Z,59.92
2023-04-15T18:32:02.428Z,58.41
2023-04-15T18:34:31.277Z,59.04
2023-04-15T18:37:00.222Z,59.78
2023-04-15T18:39:28.786Z,60.26
2023-04-15T18:41:58.335Z,61.07
2023-04-15T18:44:29.475Z,61.56
2023-04-15T18:46:58.158Z,63.18
2023-04-15T18:49:28.475Z,64.94
2023-04-15T18:51:56.625Z,64.31
2023-04-15T18:54:25.433Z,63.27
2023-04-15T18:56:54.103Z,62.08
2023-04-15T18:59:29.783Z,60.90
2023-04-15T19:02:02.094Z,58.50
2023-04-15T19:04:30.261Z,57.82
2023-04-15T19:06:59.768Z,59.64
2023-04-15T19:09:29.462Z,59.89
2023-04-15T19:11:58.625Z,61.22
2023-04-15T19:14:26.814Z,63.65
2023-04-15T19:16:58.413Z,65.27
2023-04-15T19:19:26.457Z,64.38
2023-04-15T19:21:54.718Z,63.05
2023-04-15T19:24:24.407Z,61.99
2023-04-15T19:26:54.026Z,61.35
2023-04-15T19:29:23.956Z,60.56
2023-04-15T19:31:52.723Z,58.82
2023-04-15T19:34:20.695Z,58.21
2023-04-15T19:36:54.054Z,58.82
2023-04-15T19:39:22.080Z,59.85
2023-04-15T19:41:51.334Z,60.86
2023-04-15T19:44:19.772Z,61.44
2023-04-15T19:46:51.210Z,62.07
2023-04-15T19:49:21.243Z,64.72
2023-04-15T19:51:53.577Z,65.94
2023-04-15T19:54:22.390Z,64.53
2023-04-15T19:56:50.392Z,63.33
2023-04-15T19:59:18.753Z,61.98
2023-04-15T20:01:47.366Z,60.62
2023-04-15T20:04:15.515Z,58.70
2023-04-15T20:06:43.657Z,57.97
2023-04-15T20:09:12.519Z,59.00
2023-04-15T20:12:45.939Z,59.92
2023-04-15T20:14:35.355Z,60.12
2023-04-15T20:17:03.914Z,61.51
2023-04-15T20:19:32.175Z,64.25
2023-04-15T20:22:00.319Z,65.23
2023-04-15T20:24:28.380Z,63.75
2023-04-15T20:26:58.453Z,62.11
2023-04-15T20:29:27.832Z,60.71
2023-04-15T20:31:56.257Z,58.71
2023-04-15T20:34:24.427Z,58.18
2023-04-15T20:36:52.219Z,59.14
2023-04-15T20:39:20.342Z,60.02
2023-04-15T20:41:48.353Z,60.96
2023-04-15T20:44:17.335Z,61.79
2023-04-15T20:46:48.040Z,64.16
2023-04-15T20:49:16.128Z,65.35
2023-04-15T20:51:44.457Z,64.10
2023-04-15T20:54:13.253Z,62.81
2023-04-15T20:56:41.157Z,61.65
2023-04-15T20:59:09.389Z,60.91
2023-04-15T21:01:36.776Z,60.27
2023-04-15T21:04:04.689Z,58.59
2023-04-15T21:06:33.720Z,58.03
2023-04-15T21:09:01.196Z,59.09
2023-04-15T21:11:49.529Z,60.51
2023-04-15T21:14:17.000Z,61.25
2023-04-15T21:16:44.726Z,63.62
2023-04-15T21:19:12.213Z,65.40
2023-04-15T21:21:40.265Z,64.21
2023-04-15T21:24:11.107Z,62.84
2023-04-15T21:26:38.391Z,62.07
2023-04-15T21:29:08.748Z,60.93
2023-04-15T21:31:38.159Z,59.32
2023-04-15T21:34:07.215Z,58.86
2023-04-15T21:36:34.718Z,60.14
2023-04-15T21:39:02.104Z,61.87
2023-04-15T21:41:29.850Z,64.40
2023-04-15T21:43:57.133Z,65.64
2023-04-15T21:46:25.754Z,63.04
2023-04-15T21:49:00.641Z,63.87
2023-04-15T21:51:28.161Z,63.06
2023-04-15T21:53:55.445Z,62.54
2023-04-15T21:56:24.744Z,61.61
2023-04-15T21:58:57.321Z,59.43
2023-04-15T22:01:25.497Z,58.86
2023-04-15T22:03:54.235Z,59.56
2023-04-15T22:06:21.733Z,60.92
2023-04-15T22:08:57.001Z,63.36
2023-04-15T22:11:28.358Z,65.50
2023-04-15T22:13:57.629Z,64.23
2023-04-15T22:16:28.612Z,63.11
2023-04-15T22:18:57.518Z,62.35
2023-04-15T22:21:24.785Z,61.53
2023-04-15T22:23:52.521Z,60.88
2023-04-15T22:26:20.182Z,59.23
2023-04-15T22:28:47.508Z,58.80
2023-04-15T22:31:15.392Z,59.77
2023-04-15T22:33:43.194Z,61.00
2023-04-15T22:36:10.829Z,61.52
2023-04-15T22:38:38.235Z,63.76
2023-04-15T22:41:06.255Z,65.76
2023-04-15T22:43:33.507Z,64.86
2023-04-15T22:46:01.652Z,63.35
2023-04-15T22:48:29.533Z,62.06
2023-04-15T22:50:56.676Z,61.01
2023-04-15T22:53:23.970Z,60.34
2023-04-15T22:55:51.522Z,58.77
2023-04-15T22:58:18.835Z,57.71
2023-04-15T23:00:46.306Z,58.85
2023-04-15T23:03:13.966Z,60.95
2023-04-15T23:05:42.198Z,63.91
2023-04-15T23:08:09.552Z,65.58
2023-04-15T23:10:38.889Z,64.43
2023-04-15T23:13:06.543Z,63.16
2023-04-15T23:15:33.792Z,61.90
2023-04-15T23:18:03.043Z,61.41
2023-04-15T23:20:31.010Z,60.41
2023-04-15T23:22:58.206Z,59.55
2023-04-15T23:25:25.940Z,57.28
2023-04-15T23:27:53.475Z,56.95
2023-04-15T23:30:20.822Z,58.03
2023-04-15T23:32:48.641Z,60.13
2023-04-15T23:35:17.074Z,62.96
2023-04-15T23:37:44.404Z,63.58
2023-04-15T23:40:12.651Z,64.10
2023-04-15T23:42:40.216Z,62.54
2023-04-15T23:45:08.086Z,61.88
2023-04-15T23:47:35.440Z,62.56
2023-04-15T23:50:02.993Z,62.71
2023-04-15T23:52:30.366Z,62.61
2023-04-15T23:54:57.634Z,62.31
2023-04-15T23:57:24.964Z,61.91
2023-04-15T23:59:53.341Z,61.44
